createdAt,value
2023-03-05T00:00:00.748Z,98519.16
2023-03-05T00:02:31.480Z,98521.75
2023-03-05T00:05:01.473Z,98526.94
2023-03-05T00:07:31.309Z,98522.28
2023-03-05T00:10:01.994Z,98525.03
2023-03-05T00:12:33.407Z,98526.78
2023-03-05T00:15:03.218Z,98524.22
2023-03-05T00:17:32.555Z,98515.50
2023-03-05T00:20:02.568Z,98522.31
2023-03-05T00:22:32.224Z,98519.72
2023-03-05T00:25:02.086Z,98516.31
2023-03-05T00:27:33.284Z,98519.84
2023-03-05T00:30:02.819Z,98511.00
2023-03-05T00:32:33.922Z,98511.97
2023-03-05T00:35:04.456Z,98506.25
2023-03-05T00:37:34.054Z,98507.59
2023-03-05T00:40:02.566Z,98508.44
2023-03-05T00:42:39.064Z,98509.50
2023-03-05T00:45:10.868Z,98506.09
2023-03-05T00:47:40.991Z,98500.25
2023-03-05T00:50:11.742Z,98499.41
2023-03-05T00:52:42.159Z,98491.66
2023-03-05T00:55:12.373Z,98494.94
2023-03-05T00:57:43.211Z,98489.75
2023-03-05T01:00:15.924Z,98490.69
2023-03-05T01:02:46.150Z,98492.75
2023-03-05T01:05:16.271Z,98498.22
2023-03-05T01:07:46.713Z,98493.31
2023-03-05T01:10:16.444Z,98488.91
2023-03-05T01:12:48.772Z,98486.09
2023-03-05T01:15:18.872Z,98482.69
2023-03-05T01:17:47.794Z,98489.75
2023-03-05T01:20:20.561Z,98477.06
2023-03-05T01:22:50.812Z,98483.63
2023-03-05T01:25:19.664Z,98476.53
2023-03-05T01:27:51.137Z,98476.28
2023-03-05T01:30:21.905Z,98474.34
2023-03-05T01:32:51.913Z,98473.69
2023-03-05T01:35:24.803Z,98465.09
2023-03-05T01:37:55.499Z,98461.69
2023-03-05T01:40:29.687Z,98458.28
2023-03-05T01:43:03.547Z,98458.94
2023-03-05T01:45:34.744Z,98453.66
2023-03-05T01:48:03.786Z,98444.78
2023-03-05T01:50:33.818Z,98442.19
2023-03-05T01:53:08.351Z,98441.13
2023-03-05T01:55:37.515Z,98443.41
2023-03-05T01:58:15.286Z,98433.75
2023-03-05T02:00:50.087Z,98433.34
2023-03-05T02:03:19.483Z,98433.22
2023-03-05T02:05:48.852Z,98429.81
2023-03-05T02:08:21.857Z,98432.41
2023-03-05T02:10:56.944Z,98428.72
2023-03-05T02:13:32.859Z,98418.22
2023-03-05T02:16:04.068Z,98419.28
2023-03-05T02:18:34.419Z,98414.94
2023-03-05T02:21:07.974Z,98411.69
2023-03-05T02:23:40.264Z,98409.09
2023-03-05T02:26:12.247Z,98404.88
2023-03-05T02:28:46.239Z,98409.09
2023-03-05T02:31:18.980Z,98408.28
2023-03-05T02:33:48.172Z,98407.34
2023-03-05T02:36:19.534Z,98406.78
2023-03-05T02:38:49.079Z,98403.78
2023-03-05T02:41:19.983Z,98400.25
2023-03-05T02:43:48.419Z,98398.34
2023-03-05T02:46:18.344Z,98392.34
2023-03-05T02:48:47.382Z,98394.78
2023-03-05T02:51:18.234Z,98394.25
2023-03-05T02:53:47.141Z,98397.22
2023-03-05T02:56:17.147Z,98389.34
2023-03-05T02:58:46.560Z,98385.94
2023-03-05T03:01:16.561Z,98388.69
2023-03-05T03:03:45.935Z,98377.34
2023-03-05T03:06:16.012Z,98377.88
2023-03-05T03:08:46.715Z,98375.44
2023-03-05T03:11:16.159Z,98377.34
2023-03-05T03:13:45.782Z,98363.31
2023-03-05T03:16:16.974Z,98362.50
2023-03-05T03:18:47.582Z,98353.38
2023-03-05T03:21:24.272Z,98351.16
2023-03-05T03:23:54.944Z,98350.50
2023-03-05T03:26:24.287Z,98350.38
2023-03-05T03:28:53.335Z,98348.56
2023-03-05T03:31:23.352Z,98343.41
2023-03-05T03:33:53.175Z,98343.56
2023-03-05T03:36:22.615Z,98339.75
2023-03-05T03:38:54.392Z,98342.34
2023-03-05T03:41:23.849Z,98344.78
2023-03-05T03:43:53.840Z,98339.75
2023-03-05T03:46:23.726Z,98333.34
2023-03-05T03:48:53.419Z,98335.91
2023-03-05T03:51:23.967Z,98329.78
2023-03-05T03:53:54.436Z,98329.50
2023-03-05T03:56:24.530Z,98331.56
2023-03-05T03:58:54.273Z,98330.91
2023-03-05T04:01:24.080Z,98330.75
2023-03-05T04:03:54.194Z,98327.22
2023-03-05T04:06:22.911Z,98321.22
2023-03-05T04:08:51.883Z,98320.38
2023-03-05T04:11:23.339Z,98317.25
2023-03-05T04:13:52.735Z,98315.50
2023-03-05T04:16:22.411Z,98315.38
2023-03-05T04:18:52.870Z,98316.19
2023-03-05T04:21:21.953Z,98316.84
2023-03-05T04:23:50.869Z,98320.00
2023-03-05T04:26:19.369Z,98319.72
2023-03-05T04:28:50.871Z,98317.13
2023-03-05T04:31:21.426Z,98315.50
2023-03-05T04:33:50.965Z,98317.41
2023-03-05T04:36:20.937Z,98314.38
2023-03-05T04:38:50.785Z,98317.13
2023-03-05T04:41:21.185Z,98322.97
2023-03-05T04:43:52.492Z,98315.50
2023-03-05T04:46:23.128Z,98320.53
2023-03-05T04:48:54.083Z,98312.78
2023-03-05T04:51:23.484Z,98314.69
2023-03-05T04:53:52.265Z,98312.25
2023-03-05T04:56:22.439Z,98312.25
2023-03-05T04:58:53.655Z,98308.03
2023-03-05T05:01:23.859Z,98304.78
2023-03-05T05:03:53.796Z,98295.38
2023-03-05T05:06:24.242Z,98300.81
2023-03-05T05:08:54.259Z,98295.38
2023-03-05T05:11:23.725Z,98295.38
2023-03-05T05:13:55.518Z,98295.38
2023-03-05T05:16:24.513Z,98287.19
2023-03-05T05:18:53.457Z,98285.44
2023-03-05T05:21:23.479Z,98276.84
2023-03-05T05:23:53.878Z,98276.72
2023-03-05T05:26:23.991Z,98275.75
2023-03-05T05:28:55.935Z,98280.13
2023-03-05T05:31:25.050Z,98279.44
2023-03-05T05:33:55.220Z,98284.34
2023-03-05T05:36:24.211Z,98275.91
2023-03-05T05:38:53.645Z,98277.66
2023-03-05T05:41:22.727Z,98287.19
2023-03-05T05:43:53.410Z,98286.25
2023-03-05T05:46:22.910Z,98283.66
2023-03-05T05:48:51.992Z,98278.19
2023-03-05T05:51:24.133Z,98273.47
2023-03-05T05:53:53.672Z,98275.06
2023-03-05T05:56:23.722Z,98279.06
2023-03-05T05:58:56.232Z,98270.34
2023-03-05T06:01:28.663Z,98267.59
2023-03-05T06:03:58.800Z,98260.66
2023-03-05T06:06:30.010Z,98267.47
2023-03-05T06:09:00.035Z,98270.06
2023-03-05T06:11:30.249Z,98264.72
2023-03-05T06:14:04.449Z,98266.34
2023-03-05T06:16:34.858Z,98267.59
2023-03-05T06:19:05.504Z,98268.41
2023-03-05T06:21:35.981Z,98276.31
2023-03-05T06:24:07.180Z,98278.22
2023-03-05T06:26:36.972Z,98274.69
2023-03-05T06:29:07.435Z,98274.81
2023-03-05T06:31:38.440Z,98280.16
2023-03-05T06:34:08.715Z,98279.75
2023-03-05T06:36:41.230Z,98276.50
2023-03-05T06:39:11.202Z,98278.56
2023-03-05T06:41:39.833Z,98276.63
2023-03-05T06:44:12.084Z,98266.69
2023-03-05T06:46:43.444Z,98273.63
2023-03-05T06:49:14.544Z,98265.72
2023-03-05T06:51:45.387Z,98273.38
2023-03-05T06:54:20.575Z,98274.69
2023-03-05T06:56:50.772Z,98261.50
2023-03-05T06:59:22.252Z,98268.47
2023-03-05T07:01:52.364Z,98266.41
2023-03-05T07:04:24.755Z,98272.28
2023-03-05T07:06:54.690Z,98271.16
2023-03-05T07:09:24.437Z,98262.47
2023-03-05T07:11:56.275Z,98270.34
2023-03-05T07:14:26.769Z,98270.50
2023-03-05T07:16:57.520Z,98272.13
2023-03-05T07:19:26.437Z,98269.53
2023-03-05T07:21:56.111Z,98270.88
2023-03-05T07:24:30.511Z,98262.19
2023-03-05T07:26:59.548Z,98263.81
2023-03-05T07:29:30.933Z,98260.00
2023-03-05T07:32:00.987Z,98259.00
2023-03-05T07:34:30.414Z,98246.38
2023-03-05T07:36:59.255Z,98253.19
2023-03-05T07:39:29.306Z,98257.41
2023-03-05T07:41:59.871Z,98256.06
2023-03-05T07:44:31.856Z,98248.13
2023-03-05T07:47:01.797Z,98245.94
2023-03-05T07:49:32.006Z,98234.78
2023-03-05T07:52:00.981Z,98231.06
2023-03-05T07:54:31.493Z,98231.91
2023-03-05T07:57:01.378Z,98229.19
2023-03-05T07:59:31.858Z,98227.66
2023-03-05T08:02:01.347Z,98229.19
2023-03-05T08:04:32.124Z,98223.84
2023-03-05T08:07:01.620Z,98225.47
2023-03-05T08:09:31.681Z,98228.06
2023-03-05T08:12:01.318Z,98222.88
2023-03-05T08:14:32.103Z,98219.34
2023-03-05T08:17:01.470Z,98214.19
2023-03-05T08:19:31.941Z,98217.59
2023-03-05T08:22:01.730Z,98212.25
2023-03-05T08:24:31.132Z,98213.88
2023-03-05T08:27:00.467Z,98207.59
2023-03-05T08:29:32.335Z,98215.88
2023-03-05T08:32:01.925Z,98207.00
2023-03-05T08:34:31.168Z,98210.06
2023-03-05T08:37:01.617Z,98206.47
2023-03-05T08:39:31.249Z,98201.53
2023-03-05T08:42:00.654Z,98202.66
2023-03-05T08:44:31.534Z,98205.13
2023-03-05T08:47:02.104Z,98201.53
2023-03-05T08:49:32.056Z,98200.47
2023-03-05T08:52:01.450Z,98203.72
2023-03-05T08:54:31.546Z,98201.00
2023-03-05T08:57:01.502Z,98202.75
2023-03-05T08:59:32.513Z,98203.72
2023-03-05T09:02:02.495Z,98200.47
2023-03-05T09:04:32.079Z,98198.53
2023-03-05T09:07:01.990Z,98200.16
2023-03-05T09:09:33.035Z,98196.63
2023-03-05T09:12:02.965Z,98187.06
2023-03-05T09:14:34.730Z,98193.88
2023-03-05T09:17:04.682Z,98190.03
2023-03-05T09:19:34.112Z,98188.56
2023-03-05T09:22:04.048Z,98186.50
2023-03-05T09:24:33.187Z,98185.81
2023-03-05T09:27:03.149Z,98185.69
2023-03-05T09:29:35.143Z,98186.50
2023-03-05T09:32:05.218Z,98180.19
2023-03-05T09:34:35.736Z,98175.31
2023-03-05T09:37:05.828Z,98177.91
2023-03-05T09:39:36.666Z,98176.44
2023-03-05T09:42:52.718Z,98171.38
2023-03-05T09:45:30.412Z,98163.63
2023-03-05T09:48:13.572Z,98159.78
2023-03-05T09:50:51.364Z,98166.59
2023-03-05T09:53:33.383Z,98155.25
2023-03-05T09:56:12.580Z,98157.56
2023-03-05T09:58:44.999Z,98158.06
2023-03-05T10:01:20.698Z,98147.72
2023-03-05T10:03:58.511Z,98153.06
2023-03-05T10:06:31.867Z,98151.81
2023-03-05T10:09:14.872Z,98155.06
2023-03-05T10:11:55.186Z,98153.13
2023-03-05T10:14:30.086Z,98149.88
2023-03-05T10:17:25.888Z,98149.28
2023-03-05T10:20:13.472Z,98146.38
2023-03-05T10:23:25.648Z,98137.56
2023-03-05T10:26:19.237Z,98136.03
2023-03-05T10:29:04.938Z,98135.22
2023-03-05T10:31:53.331Z,98127.47
2023-03-05T10:34:54.816Z,98127.59
2023-03-05T10:38:48.168Z,98121.28
2023-03-05T10:41:30.361Z,98122.78
2023-03-05T10:44:11.873Z,98123.31
2023-03-05T10:46:42.335Z,98119.28
2023-03-05T10:49:21.194Z,98112.69
2023-03-05T10:51:57.715Z,98121.59
2023-03-05T10:54:31.469Z,98106.69
2023-03-05T10:57:20.471Z,98117.53
2023-03-05T10:59:53.224Z,98116.41
2023-03-05T11:02:23.566Z,98107.00
2023-03-05T11:04:54.596Z,98108.31
2023-03-05T11:07:39.456Z,98107.38
2023-03-05T11:10:22.009Z,98094.09
2023-03-05T11:12:51.367Z,98091.22
2023-03-05T11:15:31.854Z,98083.59
2023-03-05T11:18:24.828Z,98090.91
2023-03-05T11:20:54.065Z,98083.50
2023-03-05T11:23:26.338Z,98081.25
2023-03-05T11:26:02.472Z,98078.34
2023-03-05T11:28:36.673Z,98084.53
2023-03-05T11:31:21.933Z,98078.00
2023-03-05T11:34:03.907Z,98071.56
2023-03-05T11:36:34.895Z,98069.59
2023-03-05T11:39:18.368Z,98059.22
2023-03-05T11:41:53.860Z,98062.78
2023-03-05T11:44:28.703Z,98052.41
2023-03-05T11:47:04.150Z,98057.28
2023-03-05T11:49:35.320Z,98057.28
2023-03-05T11:52:13.995Z,98055.94
2023-03-05T11:54:59.487Z,98049.13
2023-03-05T11:57:34.835Z,98046.09
2023-03-05T12:00:11.492Z,98048.88
2023-03-05T12:02:40.741Z,98050.22
2023-03-05T12:05:15.280Z,98043.06
2023-03-05T12:07:52.144Z,98041.16
2023-03-05T12:10:26.760Z,98034.34
2023-03-05T12:13:08.870Z,98035.59
2023-03-05T12:15:57.561Z,98030.94
2023-03-05T12:18:42.964Z,98030.94
2023-03-05T12:21:27.641Z,98028.66
2023-03-05T12:24:01.519Z,98019.72
2023-03-05T12:27:09.266Z,98021.50
2023-03-05T12:29:49.196Z,98018.91
2023-03-05T12:33:20.658Z,98011.94
2023-03-05T12:35:50.230Z,98007.72
2023-03-05T12:38:38.131Z,98001.28
2023-03-05T12:41:36.326Z,97997.66
2023-03-05T12:44:22.099Z,97986.16
2023-03-05T12:47:20.010Z,97982.44
2023-03-05T12:49:50.314Z,97974.66
2023-03-05T12:52:31.508Z,97975.34
2023-03-05T12:55:22.082Z,97967.25
2023-03-05T12:57:59.618Z,97967.91
2023-03-05T13:00:39.091Z,97956.44
2023-03-05T13:03:18.681Z,97961.78
2023-03-05T13:05:53.327Z,97953.06
2023-03-05T13:08:26.597Z,97945.91
2023-03-05T13:11:00.822Z,97932.78
2023-03-05T13:13:37.532Z,97936.06
2023-03-05T13:16:19.113Z,97928.41
2023-03-05T13:18:50.714Z,97932.63
2023-03-05T13:21:25.820Z,97927.13
2023-03-05T13:23:59.418Z,97920.31
2023-03-05T13:26:30.667Z,97922.63
2023-03-05T13:29:14.421Z,97916.13
2023-03-05T13:31:47.798Z,97910.63
2023-03-05T13:34:24.578Z,97913.03
2023-03-05T13:37:01.133Z,97909.66
2023-03-05T13:39:34.818Z,97901.56
2023-03-05T13:42:06.533Z,97897.66
2023-03-05T13:44:38.131Z,97893.78
2023-03-05T13:47:20.626Z,97894.13
2023-03-05T13:49:57.538Z,97891.84
2023-03-05T13:52:28.444Z,97886.34
2023-03-05T13:54:58.866Z,97882.28
2023-03-05T13:57:40.571Z,97882.78
2023-03-05T14:00:32.380Z,97869.50
2023-03-05T14:03:11.759Z,97868.56
2023-03-05T14:05:46.374Z,97863.53
2023-03-05T14:08:26.127Z,97864.00
2023-03-05T14:10:58.990Z,97851.66
2023-03-05T14:13:29.389Z,97857.03
2023-03-05T14:16:07.555Z,97843.25
2023-03-05T14:18:38.686Z,97836.09
2023-03-05T14:21:11.125Z,97835.94
2023-03-05T14:23:43.542Z,97831.56
2023-03-05T14:26:37.434Z,97822.78
2023-03-05T14:29:17.628Z,97825.09
2023-03-05T14:31:51.907Z,97824.13
2023-03-05T14:34:28.112Z,97820.19
2023-03-05T14:37:03.207Z,97817.59
2023-03-05T14:39:46.886Z,97808.22
2023-03-05T14:42:38.410Z,97801.72
2023-03-05T14:45:16.962Z,97799.75
2023-03-05T14:47:46.474Z,97804.00
2023-03-05T14:50:22.026Z,97794.25
2023-03-05T14:52:55.702Z,97788.09
2023-03-05T14:55:30.296Z,97788.09
2023-03-05T14:58:06.001Z,97788.09
2023-03-05T15:00:35.600Z,97780.94
2023-03-05T15:03:05.200Z,97782.88
2023-03-05T15:05:35.915Z,97776.41
2023-03-05T15:08:06.491Z,97779.34
2023-03-05T15:10:36.550Z,97775.09
2023-03-05T15:13:06.361Z,97772.38
2023-03-05T15:15:35.044Z,97776.25
2023-03-05T15:18:05.218Z,97768.63
2023-03-05T15:20:36.100Z,97764.25
2023-03-05T15:23:06.193Z,97757.75
2023-03-05T15:25:36.317Z,97760.22
2023-03-05T15:28:06.443Z,97756.97
2023-03-05T15:30:39.896Z,97749.50
2023-03-05T15:33:14.820Z,97750.31
2023-03-05T15:35:45.030Z,97744.31
2023-03-05T15:38:15.920Z,97744.16
2023-03-05T15:40:47.801Z,97733.91
2023-03-05T15:43:17.434Z,97731.81
2023-03-05T15:45:47.116Z,97719.66
2023-03-05T15:48:15.738Z,97723.53
2023-03-05T15:50:47.074Z,97716.38
2023-03-05T15:53:18.696Z,97716.06
2023-03-05T15:55:48.677Z,97709.59
2023-03-05T15:58:19.459Z,97707.63
2023-03-05T16:00:49.139Z,97707.00
2023-03-05T16:03:18.887Z,97708.63
2023-03-05T16:05:50.637Z,97702.47
2023-03-05T16:08:20.134Z,97693.06
2023-03-05T16:10:50.364Z,97697.13
2023-03-05T16:13:21.644Z,97704.13
2023-03-05T16:15:53.714Z,97697.44
2023-03-05T16:18:25.437Z,97698.59
2023-03-05T16:20:56.756Z,97697.31
2023-03-05T16:23:27.310Z,97701.53
2023-03-05T16:25:58.593Z,97701.53
2023-03-05T16:28:28.585Z,97701.53
2023-03-05T16:31:01.460Z,97692.13
2023-03-05T16:33:30.473Z,97695.03
2023-03-05T16:36:26.529Z,97697.66
2023-03-05T16:39:00.143Z,97695.34
2023-03-05T16:41:29.877Z,97698.91
2023-03-05T16:43:58.749Z,97701.19
2023-03-05T16:46:30.215Z,97689.50
2023-03-05T16:49:00.119Z,97693.41
2023-03-05T16:51:32.275Z,97686.63
2023-03-05T16:54:01.325Z,97686.63
2023-03-05T16:56:30.747Z,97685.47
2023-03-05T16:59:00.678Z,97685.63
2023-03-05T17:01:31.201Z,97681.44
2023-03-05T17:04:03.038Z,97674.44
2023-03-05T17:06:34.951Z,97678.00
2023-03-05T17:09:05.394Z,97672.97
2023-03-05T17:11:35.422Z,97671.34
2023-03-05T17:14:06.017Z,97665.19
2023-03-05T17:16:36.226Z,97655.78
2023-03-05T17:19:05.823Z,97658.09
2023-03-05T17:21:36.767Z,97660.84
2023-03-05T17:24:06.732Z,97649.69
2023-03-05T17:26:36.728Z,97663.59
2023-03-05T17:29:06.199Z,97658.75
2023-03-05T17:31:35.289Z,97657.47
2023-03-05T17:34:05.741Z,97655.84
2023-03-05T17:36:36.184Z,97658.63
2023-03-05T17:39:06.073Z,97655.34
2023-03-05T17:41:35.380Z,97652.94
2023-03-05T17:44:04.127Z,97656.31
2023-03-05T17:46:33.822Z,97652.94
2023-03-05T17:49:02.850Z,97653.25
2023-03-05T17:51:31.923Z,97644.84
2023-03-05T17:54:02.693Z,97652.63
2023-03-05T17:56:32.917Z,97650.34
2023-03-05T17:59:03.409Z,97653.91
2023-03-05T18:01:35.474Z,97647.13
2023-03-05T18:04:05.253Z,97643.53
2023-03-05T18:06:34.842Z,97647.44
2023-03-05T18:09:06.813Z,97649.41
2023-03-05T18:11:35.267Z,97650.69
2023-03-05T18:14:05.330Z,97648.44
2023-03-05T18:16:36.406Z,97651.34
2023-03-05T18:19:05.516Z,97648.75
2023-03-05T18:21:34.864Z,97647.47
2023-03-05T18:24:06.234Z,97650.69
2023-03-05T18:26:35.752Z,97650.69
2023-03-05T18:29:05.443Z,97648.41
2023-03-05T18:31:34.373Z,97645.19
2023-03-05T18:34:04.312Z,97646.34
2023-03-05T18:36:34.038Z,97642.44
2023-03-05T18:39:05.290Z,97649.75
2023-03-05T18:41:34.388Z,97647.47
2023-03-05T18:44:05.110Z,97633.22
2023-03-05T18:46:34.129Z,97642.78
2023-03-05T18:49:03.576Z,97640.84
2023-03-05T18:51:32.428Z,97639.84
2023-03-05T18:54:02.804Z,97635.66
2023-03-05T18:56:33.123Z,97640.03
2023-03-05T18:59:02.787Z,97633.22
2023-03-05T19:01:33.739Z,97626.41
2023-03-05T19:04:05.890Z,97628.03
2023-03-05T19:06:37.067Z,97627.72
2023-03-05T19:09:18.922Z,97630.63
2023-03-05T19:11:51.226Z,97618.78
2023-03-05T19:14:21.059Z,97619.59
2023-03-05T19:16:51.014Z,97628.06
2023-03-05T19:19:22.600Z,97621.25
2023-03-05T19:21:54.900Z,97615.88
2023-03-05T19:24:28.474Z,97609.59
2023-03-05T19:27:01.855Z,97618.31
2023-03-05T19:29:33.391Z,97614.44
2023-03-05T19:32:02.265Z,97604.75
2023-03-05T19:34:32.735Z,97603.91
2023-03-05T19:37:02.351Z,97598.25
2023-03-05T19:39:31.397Z,97591.78
2023-03-05T19:42:01.783Z,97598.09
2023-03-05T19:44:31.487Z,97598.59
2023-03-05T19:47:01.495Z,97592.75
2023-03-05T19:49:30.767Z,97600.50
2023-03-05T19:51:59.814Z,97592.44
2023-03-05T19:54:28.623Z,97590.00
2023-03-05T19:57:00.160Z,97596.31
2023-03-05T19:59:31.788Z,97588.38
2023-03-05T20:02:01.494Z,97583.03
2023-03-05T20:04:32.469Z,97581.88
2023-03-05T20:07:02.587Z,97580.44
2023-03-05T20:09:31.236Z,97579.13
2023-03-05T20:12:04.804Z,97578.50
2023-03-05T20:14:36.088Z,97576.41
2023-03-05T20:17:06.825Z,97578.34
2023-03-05T20:19:37.562Z,97573.31
2023-03-05T20:22:06.659Z,97569.91
2023-03-05T20:24:37.135Z,97570.72
2023-03-05T20:27:06.104Z,97579.63
2023-03-05T20:29:36.458Z,97573.31
2023-03-05T20:32:08.884Z,97574.28
2023-03-05T20:34:38.947Z,97570.41
2023-03-05T20:37:07.978Z,97565.84
2023-03-05T20:39:36.401Z,97571.03
2023-03-05T20:42:07.596Z,97568.13
2023-03-05T20:44:38.393Z,97567.16
2023-03-05T20:47:23.683Z,97565.22
2023-03-05T20:49:56.610Z,97552.13
2023-03-05T20:52:26.160Z,97549.53
2023-03-05T20:54:55.128Z,97546.13
2023-03-05T20:57:25.070Z,97551.31
2023-03-05T20:59:55.366Z,97535.78
2023-03-05T21:02:25.868Z,97549.38
2023-03-05T21:04:55.733Z,97544.19
2023-03-05T21:07:26.782Z,97543.72
2023-03-05T21:09:56.971Z,97549.50
2023-03-05T21:12:26.552Z,97539.00
2023-03-05T21:14:57.919Z,97532.03
2023-03-05T21:17:27.512Z,97530.28
2023-03-05T21:19:58.073Z,97527.03
2023-03-05T21:22:28.020Z,97539.16
2023-03-05T21:25:04.865Z,97518.94
2023-03-05T21:27:34.868Z,97512.47
2023-03-05T21:30:05.385Z,97512.47
2023-03-05T21:32:35.597Z,97512.47
2023-03-05T21:35:05.476Z,97507.47
2023-03-05T21:37:36.880Z,97504.88
2023-03-05T21:40:09.315Z,97503.41
2023-03-05T21:42:38.806Z,97495.31
2023-03-05T21:45:13.664Z,97491.78
2023-03-05T21:47:43.473Z,97489.50
2023-03-05T21:50:16.053Z,97483.84
2023-03-05T21:52:45.672Z,97479.50
2023-03-05T21:55:18.372Z,97473.03
2023-03-05T21:57:47.874Z,97473.66
2023-03-05T22:00:23.212Z,97463.97
2023-03-05T22:02:52.485Z,97471.38
2023-03-05T22:05:22.213Z,97463.28
2023-03-05T22:07:52.876Z,97455.06
2023-03-05T22:10:22.628Z,97459.13
2023-03-05T22:12:58.435Z,97447.28
2023-03-05T22:15:29.300Z,97440.03
2023-03-05T22:17:58.768Z,97443.25
2023-03-05T22:20:27.403Z,97441.81
2023-03-05T22:22:56.697Z,97447.31
2023-03-05T22:25:26.239Z,97439.88
2023-03-05T22:27:55.854Z,97443.56
2023-03-05T22:30:26.085Z,97445.84
2023-03-05T22:32:57.494Z,97435.97
2023-03-05T22:35:26.890Z,97431.28
2023-03-05T22:37:57.140Z,97431.63
2023-03-05T22:40:27.850Z,97430.16
2023-03-05T22:42:57.904Z,97418.19
2023-03-05T22:45:27.462Z,97416.41
2023-03-05T22:47:57.321Z,97416.25
2023-03-05T22:50:27.018Z,97415.59
2023-03-05T22:52:56.734Z,97417.22
2023-03-05T22:55:25.760Z,97414.31
2023-03-05T22:57:56.240Z,97413.16
2023-03-05T23:00:26.764Z,97406.06
2023-03-05T23:02:58.213Z,97404.44
2023-03-05T23:05:27.810Z,97398.47
2023-03-05T23:07:57.751Z,97399.59
2023-03-05T23:10:30.370Z,97405.91
2023-03-05T23:13:01.533Z,97400.41
2023-03-05T23:15:34.191Z,97400.41
2023-03-05T23:18:06.915Z,97393.78
2023-03-05T23:20:39.558Z,97393.63
2023-03-05T23:23:09.014Z,97392.16
2023-03-05T23:25:39.041Z,97391.03
2023-03-05T23:28:08.016Z,97383.94
2023-03-05T23:30:39.462Z,97379.53
2023-03-05T23:33:17.433Z,97374.06
2023-03-05T23:35:54.690Z,97385.19
2023-03-05T23:38:26.698Z,97387.00
2023-03-05T23:41:01.049Z,97380.84
2023-03-05T23:43:31.927Z,97378.91
2023-03-05T23:46:02.489Z,97380.34
2023-03-05T23:48:32.879Z,97384.38
2023-03-05T23:51:02.266Z,97370.81
2023-03-05T23:53:33.473Z,97375.03
2023-03-05T23:56:03.688Z,97378.25
2023-03-05T23:58:32.984Z,97371.44
